createdAt,value
2024-04-25T00:01:14.046Z,99.90
2024-04-25T00:06:38.091Z,99.90
2024-04-25T00:11:41.158Z,99.90
2024-04-25T00:16:44.190Z,99.90
2024-04-25T00:21:47.164Z,99.90
2024-04-25T00:27:03.069Z,99.90
2024-04-25T00:32:11.460Z,99.90
2024-04-25T00:37:14.850Z,99.90
2024-04-25T00:42:23.185Z,99.90
2024-04-25T00:47:26.634Z,99.90
2024-04-25T00:52:33.133Z,99.90
2024-04-25T00:57:39.185Z,99.90
2024-04-25T01:02:43.843Z,99.90
2024-04-25T01:07:46.866Z,99.90
2024-04-25T01:12:50.859Z,99.90
2024-04-25T01:17:55.203Z,99.90
2024-04-25T01:23:00.539Z,99.90
2024-04-25T01:28:06.603Z,99.90
2024-04-25T01:33:10.435Z,99.90
2024-04-25T01:38:14.191Z,99.90
2024-04-25T01:43:17.634Z,99.90
2024-04-25T01:48:20.986Z,99.90
2024-04-25T01:53:25.121Z,99.90
2024-04-25T01:58:28.342Z,99.90
2024-04-25T02:03:34.451Z,99.90
2024-04-25T02:08:37.614Z,99.90
2024-04-25T02:13:41.010Z,99.90
2024-04-25T02:18:44.131Z,99.90
2024-04-25T02:24:06.284Z,99.90
2024-04-25T02:29:09.909Z,99.90
2024-04-25T02:34:15.881Z,99.90
2024-04-25T02:39:20.019Z,99.90
2024-04-25T02:44:54.392Z,99.90
2024-04-25T02:50:31.141Z,99.90
2024-04-25T02:55:34.527Z,99.90
2024-04-25T03:00:38.641Z,99.90
2024-04-25T03:05:42.734Z,99.90
2024-04-25T03:10:45.784Z,99.90
2024-04-25T03:15:48.934Z,99.90
2024-04-25T03:20:52.243Z,99.90
2024-04-25T03:25:55.106Z,99.90
2024-04-25T03:30:58.238Z,99.90
2024-04-25T03:36:01.120Z,99.90
2024-04-25T03:41:04.356Z,99.90
2024-04-25T03:46:08.075Z,99.90
2024-04-25T03:51:20.076Z,99.90
2024-04-25T03:56:22.948Z,99.90
2024-04-25T04:01:25.973Z,99.90
2024-04-25T04:06:29.426Z,99.90
2024-04-25T04:11:33.184Z,99.90
2024-04-25T04:16:36.672Z,99.90
2024-04-25T04:21:39.967Z,99.90
2024-04-25T04:26:44.061Z,99.90
2024-04-25T04:31:47.268Z,99.90
2024-04-25T04:36:50.313Z,99.90
2024-04-25T04:41:53.398Z,99.90
2024-04-25T04:46:56.410Z,99.90
2024-04-25T04:52:09.363Z,99.90
2024-04-25T04:57:16.986Z,99.90
2024-04-25T05:02:23.026Z,99.90
2024-04-25T05:07:26.261Z,99.90
2024-04-25T05:12:29.839Z,99.90
2024-04-25T05:17:36.171Z,99.90
2024-04-25T05:22:41.372Z,99.90
2024-04-25T05:27:45.444Z,99.90
2024-04-25T05:32:48.715Z,99.90
2024-04-25T05:37:51.860Z,99.90
2024-04-25T05:42:54.737Z,99.90
2024-04-25T05:47:58.796Z,99.90
2024-04-25T05:53:05.195Z,99.90
2024-04-25T05:58:08.150Z,99.90
2024-04-25T06:03:11.375Z,99.90
2024-04-25T06:08:15.827Z,99.90
2024-04-25T06:13:19.252Z,99.90
2024-04-25T06:18:22.532Z,99.90
2024-04-25T06:23:25.670Z,99.90
2024-04-25T06:28:28.643Z,99.90
2024-04-25T06:33:31.979Z,99.90
2024-04-25T06:38:35.231Z,99.90
2024-04-25T06:43:38.225Z,99.90
2024-04-25T06:48:41.256Z,99.90
2024-04-25T06:53:44.865Z,99.90
2024-04-25T06:58:47.905Z,99.90
2024-04-25T07:03:50.818Z,99.90
2024-04-25T07:09:00.995Z,99.90
2024-04-25T07:14:04.607Z,99.90
2024-04-25T07:19:07.756Z,99.90
2024-04-25T07:24:10.693Z,99.90
2024-04-25T07:29:13.743Z,99.90
2024-04-25T07:34:16.981Z,99.90
2024-04-25T07:39:21.720Z,99.90
2024-04-25T07:44:25.169Z,99.90
2024-04-25T07:49:28.563Z,99.90
2024-04-25T07:54:31.547Z,99.90
2024-04-25T07:59:34.807Z,99.90
2024-04-25T08:04:38.123Z,99.90
2024-04-25T08:09:41.195Z,99.90
2024-04-25T08:14:45.891Z,99.90
2024-04-25T08:19:54.048Z,99.90
2024-04-25T08:24:57.042Z,99.90
2024-04-25T08:30:00.383Z,99.90
2024-04-25T08:35:03.702Z,99.90
2024-04-25T08:40:07.304Z,99.90
2024-04-25T08:45:11.549Z,99.90
2024-04-25T08:50:18.050Z,99.90
2024-04-25T08:55:23.172Z,99.90
2024-04-25T09:00:26.431Z,99.90
2024-04-25T09:05:32.614Z,97.30
2024-04-25T09:10:43.000Z,96.50
2024-04-25T09:15:46.054Z,95.60
2024-04-25T09:20:49.608Z,96.90
2024-04-25T09:25:52.663Z,99.90
2024-04-25T09:30:56.234Z,99.90
2024-04-25T09:35:59.491Z,99.90
2024-04-25T09:41:03.531Z,99.90
2024-04-25T09:46:13.861Z,99.90
2024-04-25T09:51:31.850Z,99.90
2024-04-25T09:56:38.459Z,99.90
2024-04-25T10:01:42.680Z,99.90
2024-04-25T10:06:46.095Z,95.00
2024-04-25T10:11:50.291Z,96.60
2024-04-25T10:16:53.845Z,97.00
2024-04-25T10:21:56.819Z,94.50
2024-04-25T10:27:10.467Z,92.60
2024-04-25T10:32:13.709Z,89.60
2024-04-25T10:37:16.792Z,90.00
2024-04-25T10:42:23.598Z,92.80
2024-04-25T10:47:26.973Z,94.80
2024-04-25T10:52:30.857Z,94.80
2024-04-25T10:57:36.150Z,91.80
2024-04-25T11:02:39.853Z,92.80
2024-04-25T11:07:43.132Z,96.90
2024-04-25T11:12:46.287Z,91.90
2024-04-25T11:18:00.384Z,92.10
2024-04-25T11:23:21.075Z,90.40
2024-04-25T11:28:25.262Z,85.50
2024-04-25T11:33:29.274Z,89.60
2024-04-25T11:38:32.491Z,79.60
2024-04-25T11:43:35.531Z,82.30
2024-04-25T11:48:49.951Z,87.60
2024-04-25T11:53:53.596Z,85.70
2024-04-25T11:58:56.952Z,83.90
2024-04-25T12:03:59.860Z,83.30
2024-04-25T12:09:03.340Z,85.40
2024-04-25T12:14:08.022Z,84.70
2024-04-25T12:19:11.088Z,84.00
2024-04-25T12:24:13.979Z,81.20
2024-04-25T12:29:17.311Z,82.20
2024-04-25T12:34:20.540Z,88.30
2024-04-25T12:39:24.276Z,92.50
2024-04-25T12:44:30.759Z,99.90
2024-04-25T12:49:38.849Z,99.90
2024-04-25T12:54:42.082Z,97.50
2024-04-25T12:59:45.766Z,96.00
2024-04-25T13:04:49.362Z,98.40
2024-04-25T13:09:52.534Z,94.70
2024-04-25T13:14:55.779Z,89.70
2024-04-25T13:20:00.413Z,92.20
2024-04-25T13:25:03.921Z,90.70
2024-04-25T13:30:08.985Z,92.40
2024-04-25T13:35:12.156Z,92.30
2024-04-25T13:40:15.462Z,91.60
2024-04-25T13:45:19.979Z,91.80
2024-04-25T13:50:23.194Z,90.50
2024-04-25T13:55:26.350Z,92.00
2024-04-25T14:00:29.498Z,87.40
2024-04-25T14:05:32.832Z,85.20
2024-04-25T14:10:35.979Z,87.80
2024-04-25T14:15:39.219Z,84.00
2024-04-25T14:20:42.560Z,83.70
2024-04-25T14:26:04.050Z,82.20
2024-04-25T14:31:07.977Z,83.70
2024-04-25T14:36:13.831Z,83.80
2024-04-25T14:41:18.317Z,84.60
2024-04-25T14:46:21.475Z,86.00
2024-04-25T14:51:24.703Z,86.90
2024-04-25T14:56:28.318Z,85.00
2024-04-25T15:01:31.579Z,82.90
2024-04-25T15:06:40.910Z,80.20
2024-04-25T15:11:59.467Z,81.40
2024-04-25T15:17:07.000Z,81.60
2024-04-25T15:22:10.670Z,80.30
2024-04-25T15:27:17.090Z,79.70
2024-04-25T15:32:21.960Z,80.50
2024-04-25T15:37:25.556Z,81.90
2024-04-25T15:42:28.846Z,82.70
2024-04-25T15:47:32.505Z,82.30
2024-04-25T15:52:36.178Z,80.00
2024-04-25T15:57:40.420Z,80.60
2024-04-25T16:02:43.645Z,81.60
2024-04-25T16:07:46.915Z,82.20
2024-04-25T16:12:49.985Z,78.40
2024-04-25T16:17:53.654Z,73.70
2024-04-25T16:22:56.952Z,73.40
2024-04-25T16:28:00.078Z,73.60
2024-04-25T16:33:03.506Z,72.80
2024-04-25T16:38:10.997Z,75.00
2024-04-25T16:43:14.095Z,75.00
2024-04-25T16:48:17.845Z,77.60
2024-04-25T16:53:25.326Z,80.00
2024-04-25T16:58:45.774Z,82.70
2024-04-25T17:03:48.976Z,83.50
2024-04-25T17:08:52.510Z,85.90
2024-04-25T17:13:59.310Z,87.50
2024-04-25T17:19:03.886Z,88.50
2024-04-25T17:24:07.646Z,88.80
2024-04-25T17:29:11.848Z,90.30
2024-04-25T17:34:16.443Z,91.30
2024-04-25T17:39:19.621Z,92.40
2024-04-25T17:44:22.826Z,93.50
2024-04-25T17:49:25.896Z,94.50
2024-04-25T17:54:29.367Z,95.90
2024-04-25T17:59:32.565Z,96.80
2024-04-25T18:04:35.518Z,97.50
2024-04-25T18:09:38.707Z,99.90
2024-04-25T18:14:41.867Z,99.90
2024-04-25T18:19:49.347Z,99.90
2024-04-25T18:24:52.550Z,99.90
2024-04-25T18:29:55.491Z,99.90
2024-04-25T18:34:59.853Z,99.90
2024-04-25T18:40:03.494Z,99.90
2024-04-25T18:45:07.044Z,99.90
2024-04-25T18:50:13.344Z,99.90
2024-04-25T18:55:16.535Z,99.90
2024-04-25T19:00:19.764Z,99.90
2024-04-25T19:05:22.764Z,99.90
2024-04-25T19:10:26.660Z,99.90
2024-04-25T19:15:29.703Z,99.90
2024-04-25T19:20:33.171Z,99.90
2024-04-25T19:25:37.525Z,99.90
2024-04-25T19:30:41.174Z,99.90
2024-04-25T19:35:45.438Z,99.90
2024-04-25T19:40:50.326Z,99.90
2024-04-25T19:45:53.359Z,99.90
2024-04-25T19:50:56.443Z,99.90
2024-04-25T19:56:00.976Z,99.90
2024-04-25T20:01:04.282Z,99.90
2024-04-25T20:06:15.229Z,99.90
2024-04-25T20:11:18.390Z,99.90
2024-04-25T20:16:24.860Z,99.90
2024-04-25T20:21:27.897Z,99.90
2024-04-25T20:26:30.827Z,99.90
2024-04-25T20:31:33.929Z,99.90
2024-04-25T20:36:39.403Z,99.90
2024-04-25T20:41:43.394Z,99.90
2024-04-25T20:46:46.516Z,99.90
2024-04-25T20:51:49.591Z,99.90
2024-04-25T20:56:52.677Z,99.90
2024-04-25T21:01:55.768Z,99.90
2024-04-25T21:06:58.911Z,99.90
2024-04-25T21:12:03.629Z,99.90
2024-04-25T21:17:09.241Z,99.90
2024-04-25T21:22:12.562Z,99.90
2024-04-25T21:27:33.017Z,99.90
2024-04-25T21:32:43.274Z,99.90
2024-04-25T21:37:48.374Z,99.90
2024-04-25T21:42:53.040Z,99.90
2024-04-25T21:53:00.387Z,99.90
2024-04-25T21:58:04.475Z,99.90
2024-04-25T22:03:08.031Z,99.90
2024-04-25T22:08:11.721Z,99.90
2024-04-25T22:13:17.883Z,99.90
2024-04-25T22:18:21.060Z,99.90
2024-04-25T22:23:24.520Z,99.90
2024-04-25T22:28:27.750Z,99.90
2024-04-25T22:33:31.155Z,99.90
2024-04-25T22:38:34.149Z,99.90
2024-04-25T22:43:37.373Z,99.90
2024-04-25T22:48:40.512Z,99.90
2024-04-25T22:53:44.164Z,99.90
2024-04-25T22:58:47.182Z,99.90
2024-04-25T23:03:50.294Z,99.90
2024-04-25T23:08:53.519Z,99.90
2024-04-25T23:13:56.869Z,99.90
2024-04-25T23:19:00.748Z,99.90
2024-04-25T23:24:07.114Z,99.90
2024-04-25T23:29:14.389Z,99.90
2024-04-25T23:34:17.562Z,99.90
2024-04-25T23:39:43.636Z,99.90
2024-04-25T23:44:54.587Z,99.90
2024-04-25T23:50:06.009Z,99.90
2024-04-25T23:55:31.061Z,99.90
